sensor_id;sensor_type;location;lat;lon;timestamp;P1;durP1;ratioP1;P2;durP2;ratioP2
37169;SDS011;23062;13.952;100.608;2022-10-16T00:04:38;11.00;;;8.00;;
37169;SDS011;23062;13.952;100.608;2022-10-16T00:09:28;11.00;;;8.00;;
37169;SDS011;23062;13.952;100.608;2022-10-16T00:14:19;14.00;;;10.00;;
37169;SDS011;23062;13.952;100.608;2022-10-16T00:19:10;11.00;;;8.00;;
37169;SDS011;23062;13.952;100.608;2022-10-16T00:24:02;13.00;;;10.00;;
37169;SDS011;23062;13.952;100.608;2022-10-16T00:28:53;11.00;;;8.00;;
37169;SDS011;23062;13.952;100.608;2022-10-16T00:33:45;12.00;;;7.47;;
37169;SDS011;23062;13.952;100.608;2022-10-16T00:38:35;12.00;;;7.47;;
37169;SDS011;23062;13.952;100.608;2022-10-16T00:48:26;13.00;;;9.00;;
37169;SDS011;23062;13.952;100.608;2022-10-16T00:53:17;12.00;;;8.00;;
37169;SDS011;23062;13.952;100.608;2022-10-16T00:58:07;13.00;;;10.00;;
37169;SDS011;23062;13.952;100.608;2022-10-16T01:02:59;12.00;;;8.00;;
37169;SDS011;23062;13.952;100.608;2022-10-16T01:07:55;13.00;;;9.00;;
37169;SDS011;23062;13.952;100.608;2022-10-16T01:12:51;11.00;;;8.00;;
37169;SDS011;23062;13.952;100.608;2022-10-16T01:27:59;23.00;;;18.00;;
37169;SDS011;23062;13.952;100.608;2022-10-16T01:37:48;30.00;;;23.00;;
37169;SDS011;23062;13.952;100.608;2022-10-16T01:42:42;33.00;;;24.00;;
37169;SDS011;23062;13.952;100.608;2022-10-16T01:47:35;16.00;;;12.00;;
37169;SDS011;23062;13.952;100.608;2022-10-16T01:52:26;18.00;;;13.00;;
37169;SDS011;23062;13.952;100.608;2022-10-16T01:57:18;18.00;;;13.00;;
37169;SDS011;23062;13.952;100.608;2022-10-16T02:02:10;15.00;;;11.00;;
37169;SDS011;23062;13.952;100.608;2022-10-16T02:07:01;16.00;;;11.00;;
37169;SDS011;23062;13.952;100.608;2022-10-16T02:11:55;14.00;;;11.00;;
37169;SDS011;23062;13.952;100.608;2022-10-16T02:16:47;16.00;;;12.00;;
37169;SDS011;23062;13.952;100.608;2022-10-16T02:21:44;17.00;;;13.00;;
37169;SDS011;23062;13.952;100.608;2022-10-16T02:26:44;14.00;;;11.00;;
37169;SDS011;23062;13.952;100.608;2022-10-16T02:31:35;13.00;;;10.00;;
37169;SDS011;23062;13.952;100.608;2022-10-16T02:36:27;16.00;;;11.00;;
37169;SDS011;23062;13.952;100.608;2022-10-16T02:41:18;15.00;;;10.00;;
37169;SDS011;23062;13.952;100.608;2022-10-16T02:46:10;15.00;;;11.00;;
37169;SDS011;23062;13.952;100.608;2022-10-16T02:51:02;17.00;;;12.00;;
37169;SDS011;23062;13.952;100.608;2022-10-16T02:55:52;17.00;;;12.00;;
37169;SDS011;23062;13.952;100.608;2022-10-16T03:00:42;16.00;;;11.00;;
37169;SDS011;23062;13.952;100.608;2022-10-16T03:05:33;17.00;;;13.00;;
37169;SDS011;23062;13.952;100.608;2022-10-16T03:10:23;42.00;;;31.00;;
37169;SDS011;23062;13.952;100.608;2022-10-16T03:15:14;20.00;;;14.00;;
37169;SDS011;23062;13.952;100.608;2022-10-16T03:20:04;20.00;;;14.00;;
37169;SDS011;23062;13.952;100.608;2022-10-16T03:24:55;53.00;;;36.40;;
37169;SDS011;23062;13.952;100.608;2022-10-16T03:29:45;20.00;;;15.00;;
37169;SDS011;23062;13.952;100.608;2022-10-16T03:34:35;21.00;;;15.00;;
37169;SDS011;23062;13.952;100.608;2022-10-16T03:39:27;19.00;;;14.00;;
37169;SDS011;23062;13.952;100.608;2022-10-16T03:44:17;18.00;;;14.00;;
37169;SDS011;23062;13.952;100.608;2022-10-16T03:49:08;19.00;;;13.00;;
37169;SDS011;23062;13.952;100.608;2022-10-16T03:53:59;12.00;;;9.00;;
37169;SDS011;23062;13.952;100.608;2022-10-16T03:58:50;11.00;;;8.00;;
37169;SDS011;23062;13.952;100.608;2022-10-16T04:03:41;12.00;;;9.00;;
37169;SDS011;23062;13.952;100.608;2022-10-16T04:08:31;11.00;;;8.00;;
37169;SDS011;23062;13.952;100.608;2022-10-16T04:13:23;12.00;;;9.00;;
37169;SDS011;23062;13.952;100.608;2022-10-16T04:18:13;16.00;;;12.00;;
37169;SDS011;23062;13.952;100.608;2022-10-16T04:23:03;12.00;;;8.00;;
37169;SDS011;23062;13.952;100.608;2022-10-16T04:27:53;16.00;;;11.00;;
37169;SDS011;23062;13.952;100.608;2022-10-16T04:32:47;16.00;;;11.00;;
37169;SDS011;23062;13.952;100.608;2022-10-16T04:37:38;16.00;;;11.00;;
37169;SDS011;23062;13.952;100.608;2022-10-16T04:42:28;17.00;;;12.00;;
37169;SDS011;23062;13.952;100.608;2022-10-16T04:47:21;16.00;;;12.00;;
37169;SDS011;23062;13.952;100.608;2022-10-16T04:52:11;17.00;;;13.00;;
37169;SDS011;23062;13.952;100.608;2022-10-16T04:57:02;16.00;;;12.00;;
37169;SDS011;23062;13.952;100.608;2022-10-16T05:01:52;17.00;;;12.00;;
37169;SDS011;23062;13.952;100.608;2022-10-16T05:06:42;15.00;;;11.00;;
37169;SDS011;23062;13.952;100.608;2022-10-16T05:11:33;18.00;;;13.00;;
37169;SDS011;23062;13.952;100.608;2022-10-16T05:16:23;18.00;;;13.00;;
37169;SDS011;23062;13.952;100.608;2022-10-16T05:21:13;18.00;;;13.00;;
37169;SDS011;23062;13.952;100.608;2022-10-16T05:26:04;18.00;;;13.00;;
37169;SDS011;23062;13.952;100.608;2022-10-16T05:30:54;18.00;;;14.00;;
37169;SDS011;23062;13.952;100.608;2022-10-16T05:35:45;18.00;;;13.00;;
37169;SDS011;23062;13.952;100.608;2022-10-16T05:40:35;20.00;;;15.00;;
37169;SDS011;23062;13.952;100.608;2022-10-16T05:45:25;16.00;;;12.00;;
37169;SDS011;23062;13.952;100.608;2022-10-16T05:50:15;20.00;;;15.00;;
37169;SDS011;23062;13.952;100.608;2022-10-16T05:55:07;18.00;;;13.00;;
37169;SDS011;23062;13.952;100.608;2022-10-16T05:59:57;17.00;;;12.00;;
37169;SDS011;23062;13.952;100.608;2022-10-16T06:04:48;21.00;;;15.00;;
37169;SDS011;23062;13.952;100.608;2022-10-16T06:09:40;18.00;;;14.00;;
37169;SDS011;23062;13.952;100.608;2022-10-16T06:14:31;17.00;;;13.00;;
37169;SDS011;23062;13.952;100.608;2022-10-16T06:19:22;16.00;;;12.00;;
37169;SDS011;23062;13.952;100.608;2022-10-16T06:24:13;20.00;;;14.00;;
37169;SDS011;23062;13.952;100.608;2022-10-16T06:29:03;17.00;;;13.00;;
37169;SDS011;23062;13.952;100.608;2022-10-16T06:33:54;17.00;;;12.00;;
37169;SDS011;23062;13.952;100.608;2022-10-16T06:38:45;16.00;;;11.00;;
37169;SDS011;23062;13.952;100.608;2022-10-16T06:43:36;20.00;;;15.00;;
37169;SDS011;23062;13.952;100.608;2022-10-16T06:48:26;16.00;;;12.00;;
37169;SDS011;23062;13.952;100.608;2022-10-16T06:53:17;16.00;;;12.00;;
37169;SDS011;23062;13.952;100.608;2022-10-16T06:58:08;18.00;;;13.00;;
37169;SDS011;23062;13.952;100.608;2022-10-16T07:02:58;19.00;;;14.00;;
37169;SDS011;23062;13.952;100.608;2022-10-16T07:07:48;19.00;;;14.00;;
37169;SDS011;23062;13.952;100.608;2022-10-16T07:12:39;17.00;;;13.00;;
37169;SDS011;23062;13.952;100.608;2022-10-16T07:17:29;17.00;;;12.00;;
37169;SDS011;23062;13.952;100.608;2022-10-16T07:22:19;15.00;;;11.00;;
37169;SDS011;23062;13.952;100.608;2022-10-16T07:27:09;18.00;;;13.00;;
37169;SDS011;23062;13.952;100.608;2022-10-16T07:32:01;17.00;;;12.00;;
37169;SDS011;23062;13.952;100.608;2022-10-16T07:36:51;15.00;;;11.00;;
37169;SDS011;23062;13.952;100.608;2022-10-16T07:41:42;14.00;;;11.00;;
37169;SDS011;23062;13.952;100.608;2022-10-16T07:46:32;19.00;;;13.00;;
37169;SDS011;23062;13.952;100.608;2022-10-16T07:51:25;15.00;;;11.00;;
37169;SDS011;23062;13.952;100.608;2022-10-16T07:56:15;14.00;;;10.00;;
37169;SDS011;23062;13.952;100.608;2022-10-16T08:01:07;18.00;;;13.00;;
37169;SDS011;23062;13.952;100.608;2022-10-16T08:06:02;15.00;;;10.27;;
37169;SDS011;23062;13.952;100.608;2022-10-16T08:10:53;14.00;;;10.00;;
37169;SDS011;23062;13.952;100.608;2022-10-16T08:15:44;17.00;;;12.00;;
37169;SDS011;23062;13.952;100.608;2022-10-16T08:20:34;16.00;;;12.00;;
37169;SDS011;23062;13.952;100.608;2022-10-16T08:25:25;20.00;;;14.00;;
37169;SDS011;23062;13.952;100.608;2022-10-16T08:30:16;31.00;;;22.40;;
37169;SDS011;23062;13.952;100.608;2022-10-16T08:35:12;28.00;;;20.00;;
37169;SDS011;23062;13.952;100.608;2022-10-16T08:40:03;34.00;;;26.00;;
37169;SDS011;23062;13.952;100.608;2022-10-16T08:44:59;34.00;;;26.00;;
37169;SDS011;23062;13.952;100.608;2022-10-16T08:50:09;33.00;;;25.00;;
37169;SDS011;23062;13.952;100.608;2022-10-16T08:55:02;22.00;;;17.00;;
37169;SDS011;23062;13.952;100.608;2022-10-16T08:59:54;23.00;;;16.00;;
37169;SDS011;23062;13.952;100.608;2022-10-16T09:04:55;20.00;;;15.00;;
37169;SDS011;23062;13.952;100.608;2022-10-16T09:10:00;18.00;;;14.00;;
37169;SDS011;23062;13.952;100.608;2022-10-16T09:20:03;17.00;;;12.00;;
37169;SDS011;23062;13.952;100.608;2022-10-16T09:25:00;20.00;;;14.00;;
37169;SDS011;23062;13.952;100.608;2022-10-16T09:29:53;21.00;;;15.00;;
37169;SDS011;23062;13.952;100.608;2022-10-16T09:34:45;24.00;;;17.00;;
37169;SDS011;23062;13.952;100.608;2022-10-16T09:39:44;19.00;;;15.00;;
37169;SDS011;23062;13.952;100.608;2022-10-16T09:44:36;21.00;;;15.00;;
37169;SDS011;23062;13.952;100.608;2022-10-16T09:49:27;20.00;;;14.00;;
37169;SDS011;23062;13.952;100.608;2022-10-16T09:54:18;22.00;;;16.00;;
37169;SDS011;23062;13.952;100.608;2022-10-16T09:59:13;21.00;;;15.00;;
37169;SDS011;23062;13.952;100.608;2022-10-16T10:04:02;21.00;;;15.00;;
37169;SDS011;23062;13.952;100.608;2022-10-16T10:08:54;24.00;;;17.00;;
37169;SDS011;23062;13.952;100.608;2022-10-16T10:13:46;22.00;;;16.00;;
37169;SDS011;23062;13.952;100.608;2022-10-16T10:18:38;21.00;;;16.00;;
37169;SDS011;23062;13.952;100.608;2022-10-16T10:23:28;22.00;;;17.00;;
37169;SDS011;23062;13.952;100.608;2022-10-16T10:28:26;23.00;;;18.00;;
37169;SDS011;23062;13.952;100.608;2022-10-16T10:33:19;23.00;;;16.00;;
37169;SDS011;23062;13.952;100.608;2022-10-16T10:38:20;25.00;;;19.00;;
37169;SDS011;23062;13.952;100.608;2022-10-16T10:43:33;21.00;;;16.00;;
37169;SDS011;23062;13.952;100.608;2022-10-16T10:59:07;23.00;;;17.00;;
37169;SDS011;23062;13.952;100.608;2022-10-16T11:04:20;23.00;;;18.00;;
37169;SDS011;23062;13.952;100.608;2022-10-16T11:09:25;22.00;;;16.00;;
37169;SDS011;23062;13.952;100.608;2022-10-16T11:24:16;28.00;;;21.00;;
37169;SDS011;23062;13.952;100.608;2022-10-16T11:29:12;29.00;;;21.00;;
37169;SDS011;23062;13.952;100.608;2022-10-16T11:34:05;26.00;;;19.00;;
37169;SDS011;23062;13.952;100.608;2022-10-16T11:44:02;33.00;;;24.00;;
37169;SDS011;23062;13.952;100.608;2022-10-16T11:49:09;29.00;;;22.00;;
37169;SDS011;23062;13.952;100.608;2022-10-16T11:58:59;40.00;;;29.00;;
37169;SDS011;23062;13.952;100.608;2022-10-16T12:09:22;28.00;;;21.00;;
37169;SDS011;23062;13.952;100.608;2022-10-16T12:14:21;23.00;;;18.00;;
37169;SDS011;23062;13.952;100.608;2022-10-16T12:19:23;26.00;;;20.00;;
37169;SDS011;23062;13.952;100.608;2022-10-16T12:29:33;34.00;;;25.00;;
37169;SDS011;23062;13.952;100.608;2022-10-16T12:34:42;33.00;;;26.00;;
37169;SDS011;23062;13.952;100.608;2022-10-16T12:39:28;32.00;;;24.00;;
37169;SDS011;23062;13.952;100.608;2022-10-16T12:44:26;33.00;;;25.00;;
37169;SDS011;23062;13.952;100.608;2022-10-16T12:49:28;33.00;;;25.00;;
37169;SDS011;23062;13.952;100.608;2022-10-16T12:54:22;30.00;;;23.00;;
37169;SDS011;23062;13.952;100.608;2022-10-16T12:59:28;31.00;;;23.00;;
37169;SDS011;23062;13.952;100.608;2022-10-16T13:04:39;28.00;;;20.00;;
37169;SDS011;23062;13.952;100.608;2022-10-16T13:09:43;29.00;;;22.00;;
37169;SDS011;23062;13.952;100.608;2022-10-16T13:14:57;29.00;;;21.00;;
37169;SDS011;23062;13.952;100.608;2022-10-16T13:30:21;25.00;;;18.00;;
37169;SDS011;23062;13.952;100.608;2022-10-16T13:35:19;26.00;;;20.00;;
37169;SDS011;23062;13.952;100.608;2022-10-16T13:40:21;27.00;;;19.00;;
37169;SDS011;23062;13.952;100.608;2022-10-16T13:45:18;25.00;;;19.00;;
37169;SDS011;23062;13.952;100.608;2022-10-16T13:50:13;22.00;;;15.87;;
37169;SDS011;23062;13.952;100.608;2022-10-16T13:55:11;27.00;;;20.00;;
37169;SDS011;23062;13.952;100.608;2022-10-16T14:00:02;22.00;;;17.00;;
37169;SDS011;23062;13.952;100.608;2022-10-16T14:04:55;23.00;;;17.00;;
37169;SDS011;23062;13.952;100.608;2022-10-16T14:09:48;22.00;;;17.00;;
37169;SDS011;23062;13.952;100.608;2022-10-16T14:14:45;25.00;;;19.00;;
37169;SDS011;23062;13.952;100.608;2022-10-16T14:19:38;21.00;;;16.00;;
37169;SDS011;23062;13.952;100.608;2022-10-16T14:24:34;19.00;;;15.00;;
37169;SDS011;23062;13.952;100.608;2022-10-16T14:29:27;23.00;;;17.00;;
37169;SDS011;23062;13.952;100.608;2022-10-16T14:34:26;23.00;;;17.00;;
37169;SDS011;23062;13.952;100.608;2022-10-16T14:39:23;18.00;;;13.07;;
37169;SDS011;23062;13.952;100.608;2022-10-16T14:44:16;22.00;;;16.00;;
37169;SDS011;23062;13.952;100.608;2022-10-16T14:54:04;18.00;;;13.00;;
37169;SDS011;23062;13.952;100.608;2022-10-16T14:58:56;19.00;;;14.00;;
37169;SDS011;23062;13.952;100.608;2022-10-16T15:03:47;23.00;;;17.00;;
37169;SDS011;23062;13.952;100.608;2022-10-16T15:08:37;20.00;;;15.00;;
37169;SDS011;23062;13.952;100.608;2022-10-16T15:13:28;19.00;;;14.00;;
37169;SDS011;23062;13.952;100.608;2022-10-16T15:18:18;19.00;;;13.00;;
37169;SDS011;23062;13.952;100.608;2022-10-16T15:23:13;19.00;;;14.00;;
37169;SDS011;23062;13.952;100.608;2022-10-16T15:28:05;19.00;;;14.00;;
37169;SDS011;23062;13.952;100.608;2022-10-16T15:32:57;19.00;;;14.00;;
37169;SDS011;23062;13.952;100.608;2022-10-16T15:37:48;19.00;;;14.00;;
37169;SDS011;23062;13.952;100.608;2022-10-16T15:42:38;16.00;;;12.00;;
37169;SDS011;23062;13.952;100.608;2022-10-16T15:47:29;18.00;;;13.00;;
37169;SDS011;23062;13.952;100.608;2022-10-16T15:52:19;13.00;;;10.00;;
37169;SDS011;23062;13.952;100.608;2022-10-16T15:57:10;16.00;;;12.00;;
37169;SDS011;23062;13.952;100.608;2022-10-16T16:02:00;14.00;;;10.00;;
37169;SDS011;23062;13.952;100.608;2022-10-16T16:06:51;14.00;;;11.00;;
37169;SDS011;23062;13.952;100.608;2022-10-16T16:11:41;16.00;;;11.00;;
37169;SDS011;23062;13.952;100.608;2022-10-16T16:16:31;12.00;;;8.00;;
37169;SDS011;23062;13.952;100.608;2022-10-16T16:21:23;17.00;;;12.00;;
37169;SDS011;23062;13.952;100.608;2022-10-16T16:26:31;14.00;;;10.00;;
37169;SDS011;23062;13.952;100.608;2022-10-16T16:31:19;16.00;;;11.00;;
37169;SDS011;23062;13.952;100.608;2022-10-16T16:36:11;15.00;;;11.00;;
37169;SDS011;23062;13.952;100.608;2022-10-16T16:41:11;14.00;;;11.00;;
37169;SDS011;23062;13.952;100.608;2022-10-16T16:46:02;17.00;;;12.00;;
37169;SDS011;23062;13.952;100.608;2022-10-16T16:50:52;14.00;;;10.00;;
37169;SDS011;23062;13.952;100.608;2022-10-16T16:55:43;17.00;;;12.00;;
37169;SDS011;23062;13.952;100.608;2022-10-16T17:00:34;14.00;;;10.00;;
37169;SDS011;23062;13.952;100.608;2022-10-16T17:05:26;15.00;;;11.00;;
37169;SDS011;23062;13.952;100.608;2022-10-16T17:10:16;16.00;;;11.00;;
37169;SDS011;23062;13.952;100.608;2022-10-16T17:15:07;17.00;;;12.00;;
37169;SDS011;23062;13.952;100.608;2022-10-16T17:19:57;14.00;;;10.00;;
37169;SDS011;23062;13.952;100.608;2022-10-16T17:24:49;13.00;;;10.00;;
37169;SDS011;23062;13.952;100.608;2022-10-16T17:29:40;18.00;;;13.00;;
37169;SDS011;23062;13.952;100.608;2022-10-16T17:34:32;16.00;;;11.00;;
37169;SDS011;23062;13.952;100.608;2022-10-16T17:39:22;17.00;;;12.00;;
37169;SDS011;23062;13.952;100.608;2022-10-16T17:44:12;16.00;;;12.00;;
37169;SDS011;23062;13.952;100.608;2022-10-16T17:49:04;14.00;;;10.00;;
37169;SDS011;23062;13.952;100.608;2022-10-16T17:53:56;16.00;;;12.00;;
37169;SDS011;23062;13.952;100.608;2022-10-16T17:58:48;14.00;;;10.00;;
37169;SDS011;23062;13.952;100.608;2022-10-16T18:03:38;19.00;;;14.00;;
37169;SDS011;23062;13.952;100.608;2022-10-16T18:08:29;13.00;;;10.00;;
37169;SDS011;23062;13.952;100.608;2022-10-16T18:13:20;17.00;;;12.00;;
37169;SDS011;23062;13.952;100.608;2022-10-16T18:18:10;14.00;;;11.00;;
37169;SDS011;23062;13.952;100.608;2022-10-16T18:23:01;13.00;;;10.00;;
37169;SDS011;23062;13.952;100.608;2022-10-16T18:27:52;17.00;;;12.00;;
37169;SDS011;23062;13.952;100.608;2022-10-16T18:32:43;16.00;;;11.00;;
37169;SDS011;23062;13.952;100.608;2022-10-16T18:37:34;15.00;;;11.00;;
37169;SDS011;23062;13.952;100.608;2022-10-16T18:42:25;16.00;;;11.00;;
37169;SDS011;23062;13.952;100.608;2022-10-16T18:47:15;17.00;;;12.00;;
37169;SDS011;23062;13.952;100.608;2022-10-16T18:52:06;18.00;;;14.00;;
37169;SDS011;23062;13.952;100.608;2022-10-16T18:56:56;14.00;;;10.00;;
37169;SDS011;23062;13.952;100.608;2022-10-16T19:01:47;15.00;;;11.00;;
37169;SDS011;23062;13.952;100.608;2022-10-16T19:06:39;16.00;;;11.00;;
37169;SDS011;23062;13.952;100.608;2022-10-16T19:11:31;13.00;;;10.00;;
37169;SDS011;23062;13.952;100.608;2022-10-16T19:16:23;17.00;;;12.00;;
37169;SDS011;23062;13.952;100.608;2022-10-16T19:21:16;15.00;;;11.00;;
37169;SDS011;23062;13.952;100.608;2022-10-16T19:26:08;18.00;;;14.00;;
37169;SDS011;23062;13.952;100.608;2022-10-16T19:31:00;15.00;;;10.00;;
37169;SDS011;23062;13.952;100.608;2022-10-16T19:35:52;17.00;;;12.00;;
37169;SDS011;23062;13.952;100.608;2022-10-16T19:40:42;16.00;;;12.00;;
37169;SDS011;23062;13.952;100.608;2022-10-16T19:45:32;15.00;;;11.00;;
37169;SDS011;23062;13.952;100.608;2022-10-16T19:50:23;15.00;;;12.00;;
37169;SDS011;23062;13.952;100.608;2022-10-16T19:55:13;17.00;;;12.00;;
37169;SDS011;23062;13.952;100.608;2022-10-16T20:00:05;17.00;;;13.00;;
37169;SDS011;23062;13.952;100.608;2022-10-16T20:04:56;18.00;;;13.00;;
37169;SDS011;23062;13.952;100.608;2022-10-16T20:09:47;15.00;;;11.00;;
37169;SDS011;23062;13.952;100.608;2022-10-16T20:14:37;16.00;;;12.00;;
37169;SDS011;23062;13.952;100.608;2022-10-16T20:19:27;17.00;;;12.00;;
37169;SDS011;23062;13.952;100.608;2022-10-16T20:24:18;15.00;;;11.00;;
37169;SDS011;23062;13.952;100.608;2022-10-16T20:29:08;15.00;;;11.00;;
37169;SDS011;23062;13.952;100.608;2022-10-16T20:34:03;14.00;;;10.00;;
37169;SDS011;23062;13.952;100.608;2022-10-16T20:38:52;13.00;;;10.00;;
37169;SDS011;23062;13.952;100.608;2022-10-16T20:43:44;13.00;;;10.00;;
37169;SDS011;23062;13.952;100.608;2022-10-16T20:48:36;12.00;;;8.00;;
37169;SDS011;23062;13.952;100.608;2022-10-16T20:53:28;13.00;;;10.00;;
37169;SDS011;23062;13.952;100.608;2022-10-16T20:58:18;14.00;;;10.00;;
37169;SDS011;23062;13.952;100.608;2022-10-16T21:03:09;14.00;;;10.00;;
37169;SDS011;23062;13.952;100.608;2022-10-16T21:08:02;17.00;;;12.00;;
37169;SDS011;23062;13.952;100.608;2022-10-16T21:12:52;14.00;;;10.00;;
37169;SDS011;23062;13.952;100.608;2022-10-16T21:17:43;18.00;;;13.00;;
37169;SDS011;23062;13.952;100.608;2022-10-16T21:22:34;16.00;;;11.00;;
37169;SDS011;23062;13.952;100.608;2022-10-16T21:27:25;16.00;;;12.00;;
37169;SDS011;23062;13.952;100.608;2022-10-16T21:32:15;19.00;;;13.00;;
37169;SDS011;23062;13.952;100.608;2022-10-16T21:37:08;15.00;;;11.00;;
37169;SDS011;23062;13.952;100.608;2022-10-16T21:42:00;18.00;;;13.00;;
37169;SDS011;23062;13.952;100.608;2022-10-16T21:46:50;17.00;;;13.00;;
37169;SDS011;23062;13.952;100.608;2022-10-16T21:51:44;17.00;;;12.00;;
37169;SDS011;23062;13.952;100.608;2022-10-16T21:56:34;18.00;;;13.00;;
37169;SDS011;23062;13.952;100.608;2022-10-16T22:01:25;19.00;;;14.00;;
37169;SDS011;23062;13.952;100.608;2022-10-16T22:06:19;16.00;;;12.00;;
37169;SDS011;23062;13.952;100.608;2022-10-16T22:11:13;20.00;;;13.07;;
37169;SDS011;23062;13.952;100.608;2022-10-16T22:16:10;20.00;;;14.00;;
37169;SDS011;23062;13.952;100.608;2022-10-16T22:21:01;19.00;;;13.00;;
37169;SDS011;23062;13.952;100.608;2022-10-16T22:25:57;13.00;;;10.00;;
37169;SDS011;23062;13.952;100.608;2022-10-16T22:30:48;18.00;;;13.00;;
37169;SDS011;23062;13.952;100.608;2022-10-16T22:35:39;18.00;;;13.00;;
37169;SDS011;23062;13.952;100.608;2022-10-16T22:40:32;19.00;;;14.00;;
37169;SDS011;23062;13.952;100.608;2022-10-16T22:45:21;17.00;;;13.00;;
37169;SDS011;23062;13.952;100.608;2022-10-16T22:50:12;18.00;;;13.00;;
37169;SDS011;23062;13.952;100.608;2022-10-16T22:55:02;18.00;;;13.00;;
37169;SDS011;23062;13.952;100.608;2022-10-16T22:59:53;17.00;;;12.00;;
37169;SDS011;23062;13.952;100.608;2022-10-16T23:04:43;21.00;;;16.00;;
37169;SDS011;23062;13.952;100.608;2022-10-16T23:09:34;17.00;;;12.00;;
37169;SDS011;23062;13.952;100.608;2022-10-16T23:14:25;24.00;;;18.00;;
37169;SDS011;23062;13.952;100.608;2022-10-16T23:19:15;23.00;;;16.00;;
37169;SDS011;23062;13.952;100.608;2022-10-16T23:24:06;19.00;;;15.00;;
37169;SDS011;23062;13.952;100.608;2022-10-16T23:28:57;19.00;;;14.00;;
37169;SDS011;23062;13.952;100.608;2022-10-16T23:33:48;21.00;;;15.00;;
37169;SDS011;23062;13.952;100.608;2022-10-16T23:38:38;19.00;;;14.00;;
37169;SDS011;23062;13.952;100.608;2022-10-16T23:43:30;16.00;;;11.20;;
37169;SDS011;23062;13.952;100.608;2022-10-16T23:48:20;18.00;;;13.00;;
37169;SDS011;23062;13.952;100.608;2022-10-16T23:53:11;18.00;;;13.00;;
37169;SDS011;23062;13.952;100.608;2022-10-16T23:58:03;18.00;;;13.00;;
